createdAt,value
2022-10-14T05:45:56.423Z,14.30
2022-10-14T05:51:27.618Z,14.29
2022-10-14T05:56:37.259Z,14.32
2022-10-14T06:01:40.457Z,14.32
2022-10-14T06:06:42.344Z,14.39
2022-10-14T06:11:44.883Z,14.35
2022-10-14T06:16:49.767Z,14.35
2022-10-14T06:21:51.917Z,14.40
2022-10-14T06:26:53.879Z,14.36
2022-10-14T06:31:55.406Z,14.51
2022-10-14T06:37:01.978Z,14.44
2022-10-14T06:42:04.195Z,14.38
2022-10-14T06:47:07.140Z,14.52
2022-10-14T06:52:09.865Z,14.49
2022-10-14T06:57:11.436Z,14.50
2022-10-14T07:02:13.014Z,14.47
2022-10-14T07:07:14.830Z,14.46
2022-10-14T07:12:16.701Z,14.43
2022-10-14T07:17:18.498Z,14.44
2022-10-14T07:22:20.419Z,14.43
2022-10-14T07:27:22.529Z,14.47
2022-10-14T07:32:24.395Z,14.48
2022-10-14T07:37:26.112Z,14.50
2022-10-14T07:42:28.007Z,14.57
2022-10-14T07:47:30.045Z,14.64
2022-10-14T07:52:31.634Z,14.76
2022-10-14T07:57:33.469Z,14.83
2022-10-14T08:02:35.645Z,14.85
2022-10-14T08:07:37.313Z,14.98
2022-10-14T08:12:39.060Z,15.00
2022-10-14T08:17:40.787Z,15.13
2022-10-14T08:22:42.479Z,15.28
2022-10-14T08:27:44.109Z,15.34
2022-10-14T08:32:45.814Z,15.44
2022-10-14T08:38:01.355Z,15.55
2022-10-14T08:43:24.042Z,15.66
2022-10-14T08:48:28.958Z,15.76
2022-10-14T08:53:37.294Z,15.82
2022-10-14T08:59:05.409Z,15.96
2022-10-14T09:04:14.890Z,16.09
2022-10-14T09:09:37.946Z,16.04
2022-10-14T09:14:45.602Z,16.10
2022-10-14T09:19:57.803Z,16.22
2022-10-14T09:24:59.538Z,16.21
2022-10-14T09:30:03.723Z,16.37
2022-10-14T09:35:33.300Z,16.35
2022-10-14T09:40:42.873Z,16.41
2022-10-14T09:45:47.556Z,16.46
2022-10-14T09:50:55.477Z,16.57
2022-10-14T09:56:02.324Z,16.68
2022-10-14T10:01:04.337Z,16.81
2022-10-14T10:06:09.602Z,16.98
2022-10-14T10:11:12.365Z,17.08
2022-10-14T10:16:31.064Z,17.33
2022-10-14T10:21:32.758Z,17.25
2022-10-14T10:26:34.907Z,17.66
2022-10-14T10:31:56.720Z,17.65
2022-10-14T10:37:25.080Z,17.20
2022-10-14T10:43:02.225Z,16.87
2022-10-14T10:48:06.497Z,16.65
2022-10-14T10:53:29.614Z,16.55
2022-10-14T10:58:41.356Z,16.80
2022-10-14T11:04:17.043Z,16.92
2022-10-14T11:09:30.274Z,16.80
2022-10-14T11:14:32.090Z,16.64
2022-10-14T11:19:44.409Z,16.69
2022-10-14T11:25:09.556Z,16.80
2022-10-14T11:31:03.462Z,16.80
2022-10-14T11:36:05.060Z,16.66
2022-10-14T11:41:43.913Z,16.81
2022-10-14T11:46:52.364Z,16.65
2022-10-14T11:52:28.556Z,16.61
2022-10-14T11:57:43.890Z,16.63
2022-10-14T12:03:10.327Z,16.64
2022-10-14T12:08:35.692Z,16.76
2022-10-14T12:14:21.790Z,16.80
2022-10-14T12:19:26.551Z,16.89
2022-10-14T12:24:34.321Z,16.84
2022-10-14T12:29:43.592Z,16.73
2022-10-14T12:34:50.286Z,16.73
2022-10-14T12:39:53.576Z,16.71
2022-10-14T12:44:57.962Z,16.74
2022-10-14T12:50:02.958Z,16.83
2022-10-14T12:55:21.494Z,16.73
2022-10-14T13:00:23.316Z,16.57
2022-10-14T13:05:38.840Z,16.56
2022-10-14T13:10:46.211Z,16.70
2022-10-14T13:15:51.527Z,16.72
2022-10-14T13:20:53.707Z,16.89
2022-10-14T13:26:10.679Z,16.80
2022-10-14T13:31:21.273Z,16.95
2022-10-14T13:36:41.710Z,16.85
2022-10-14T13:41:44.047Z,16.92
2022-10-14T13:47:01.387Z,17.10
2022-10-14T13:52:06.427Z,16.97
2022-10-14T14:02:38.584Z,17.11
2022-10-14T14:08:21.692Z,17.06
2022-10-14T14:13:04.077Z,16.99
2022-10-14T14:18:06.352Z,17.03
2022-10-14T14:23:12.825Z,17.08
2022-10-14T14:28:14.726Z,17.09
2022-10-14T14:33:21.162Z,17.12
2022-10-14T14:38:31.291Z,17.18
2022-10-14T14:43:38.453Z,17.39
2022-10-14T14:48:44.914Z,17.35
2022-10-14T14:53:54.848Z,17.43
2022-10-14T14:59:23.605Z,17.46
2022-10-14T15:04:27.620Z,17.45
2022-10-14T15:09:47.745Z,17.55
2022-10-14T15:14:53.933Z,17.73
2022-10-14T15:20:33.549Z,17.82
2022-10-14T15:25:35.145Z,17.70
2022-10-14T15:30:39.660Z,17.70
2022-10-14T15:35:42.687Z,17.61
2022-10-14T15:40:48.440Z,17.48
2022-10-14T15:45:57.919Z,17.42
2022-10-14T15:50:59.652Z,17.26
2022-10-14T15:56:01.111Z,17.15
2022-10-14T16:01:04.548Z,17.02
2022-10-14T16:06:06.564Z,16.95
2022-10-14T16:11:19.998Z,16.83
2022-10-14T16:16:48.082Z,16.90
2022-10-14T16:21:49.586Z,16.87
2022-10-14T16:26:52.436Z,16.83
2022-10-14T16:31:54.011Z,16.79
2022-10-14T16:36:55.669Z,16.76
2022-10-14T16:41:57.240Z,16.72
2022-10-14T16:46:59.045Z,16.60
2022-10-14T16:52:00.593Z,16.63
2022-10-14T16:57:02.937Z,16.66
2022-10-14T17:02:06.287Z,16.64
2022-10-14T17:07:08.014Z,16.53
2022-10-14T17:12:12.955Z,16.48
2022-10-14T17:17:15.988Z,16.45
2022-10-14T17:22:17.637Z,16.43
2022-10-14T17:27:19.278Z,16.44
2022-10-14T17:32:21.675Z,16.42
2022-10-14T17:37:26.518Z,16.39
2022-10-14T17:42:28.207Z,16.35
2022-10-14T17:47:29.982Z,16.29
2022-10-14T17:52:32.262Z,16.24
2022-10-14T17:57:33.825Z,16.21
2022-10-14T18:02:35.429Z,16.23
2022-10-14T18:07:37.368Z,16.22
2022-10-14T18:12:39.037Z,16.24
2022-10-14T18:17:40.613Z,16.29
2022-10-14T18:22:42.296Z,16.30
2022-10-14T18:27:43.976Z,16.29
2022-10-14T18:32:45.579Z,16.33
2022-10-14T18:37:48.355Z,16.35
2022-10-14T18:42:50.431Z,16.33
2022-10-14T18:47:51.956Z,16.23
2022-10-14T18:52:53.499Z,16.25
2022-10-14T18:57:55.055Z,16.22
2022-10-14T19:02:56.597Z,16.08
2022-10-14T19:07:58.303Z,16.08
2022-10-14T19:12:59.913Z,15.95
2022-10-14T19:18:01.413Z,16.03
2022-10-14T19:23:02.934Z,16.05
2022-10-14T19:28:04.642Z,16.07
2022-10-14T19:33:06.173Z,16.10
2022-10-14T19:38:07.654Z,16.04
2022-10-14T19:43:09.248Z,16.01
2022-10-14T19:48:29.745Z,15.99
2022-10-14T19:53:33.760Z,15.95
2022-10-14T19:58:38.604Z,15.93
2022-10-14T20:03:43.480Z,15.92
2022-10-14T20:08:45.159Z,15.90
2022-10-14T20:13:47.043Z,15.88
2022-10-14T20:18:48.957Z,15.88
2022-10-14T20:23:50.859Z,15.91
2022-10-14T20:54:56.726Z,15.76
2022-10-14T20:59:58.357Z,15.81
2022-10-14T21:05:00.283Z,15.79
2022-10-14T21:10:01.766Z,15.83
2022-10-14T21:15:03.878Z,15.87
2022-10-14T21:20:06.077Z,15.73
2022-10-14T21:25:07.901Z,15.61
2022-10-14T21:30:10.072Z,15.64
2022-10-14T21:35:12.875Z,15.65
2022-10-14T21:40:14.491Z,15.61
2022-10-14T21:45:16.169Z,15.55
2022-10-14T21:50:17.745Z,15.55
2022-10-14T21:55:19.340Z,15.56
2022-10-14T22:00:24.131Z,15.57
2022-10-14T22:05:25.667Z,15.54
2022-10-14T22:10:27.185Z,15.51
2022-10-14T22:15:28.708Z,15.47
2022-10-14T22:20:30.222Z,15.42
2022-10-14T22:25:33.448Z,15.41
2022-10-14T22:30:36.333Z,15.39
2022-10-14T22:35:37.860Z,15.39
2022-10-14T22:40:39.441Z,15.41
2022-10-14T22:45:40.919Z,15.38
2022-10-14T22:50:42.396Z,15.40
